Thailine 9 — 9WGP9 — position and weather

sailwx.info

Track history (hours):
 
Tides and Currents Weather Stations Pressure Air Temp Water Temp Dewpoint Dewpoint Depression Visibility Wind Speed Wind Dir Waves Ship Positions

Thailine 9

Last reported at 2015-Aug-20 10:10 UTC. Time now 2015-Aug-31 19:53 UTC.
Position N 34°59' E 139°32'.
Warning: this ship's position is 11 days out of date.

Length 113 m; draft 5.3 m.

Type: Cargo ship. MMSI: 533791000.

Date/timePositionNaut miles runAvg speedWind from/ knotsBaromVisibWave heightAir tempDewpointWater temp
2015-Aug-20 10:10N 34°59' E 139°32'711.4
2015-Aug-20 09:33N 35°03' E 139°38'1211.6
2015-Aug-20 08:34N 35°13' E 139°46'1211.5
2015-Aug-20 07:33N 35°24' E 139°42'4 3.7
2015-Aug-20 06:33N 35°27' E 139°41'0 0.0
2015-Aug-20 05:26N 35°27' E 139°41'0 0.0
2015-Aug-20 04:32N 35°27' E 139°41'0 0.0
2015-Aug-20 03:32N 35°27' E 139°41'0 0.0
2015-Aug-20 02:31N 35°27' E 139°41'0 0.0
2015-Aug-20 01:32N 35°27' E 139°41'0 0.0
2015-Aug-20 00:32N 35°27' E 139°41'0 0.0
2015-Aug-19 23:31N 35°27' E 139°41'0 0.0
2015-Aug-19 22:32N 35°27' E 139°41'2 1.6
2015-Aug-19 21:32N 35°26' E 139°42'0 0.1
2015-Aug-19 20:32N 35°26' E 139°42'0 0.0
2015-Aug-19 19:32N 35°26' E 139°42'0 0.1
2015-Aug-19 18:32N 35°26' E 139°42'0 0.0
2015-Aug-19 17:32N 35°26' E 139°42'0 0.0
2015-Aug-19 16:32N 35°26' E 139°42'0 0.0
2015-Aug-19 15:32N 35°26' E 139°42'0 0.0
2015-Aug-19 14:32N 35°26' E 139°42'0 0.0
2015-Aug-19 13:32N 35°26' E 139°42'0 0.0
2015-Aug-19 12:32N 35°26' E 139°42'0 0.0
2015-Aug-19 11:32N 35°26' E 139°42'0 0.0
2015-Aug-19 10:32N 35°26' E 139°42'0 0.0
2015-Aug-19 09:32N 35°26' E 139°42'0 0.1
2015-Aug-19 08:32N 35°26' E 139°42'0 0.1
2015-Aug-19 07:32N 35°26' E 139°42'1 0.7
2015-Aug-19 06:34N 35°26' E 139°43'1111.3
2015-Aug-19 05:34N 35°31' E 139°55'1010.3
2015-Aug-19 04:34N 35°36' E 140°06'0 0.1
2015-Aug-19 03:33N 35°36' E 140°06'0 0.0
2015-Aug-19 02:31N 35°36' E 140°06'0 0.0
2015-Aug-19 01:28N 35°36' E 140°06'0 0.0
2015-Aug-19 00:31N 35°36' E 140°06'0 0.0
2015-Aug-18 23:31N 35°36' E 140°06'0 0.0
2015-Aug-18 22:28N 35°36' E 140°06'0 0.0
2015-Aug-18 21:31N 35°36' E 140°06'0 0.0
2015-Aug-18 20:31N 35°36' E 140°06'0 0.0
2015-Aug-18 19:31N 35°36' E 140°06'0 0.0
2015-Aug-18 18:25N 35°36' E 140°06'0 0.0
2015-Aug-18 17:31N 35°36' E 140°06'0 0.0
2015-Aug-18 16:31N 35°36' E 140°06'0 0.0
2015-Aug-18 15:31N 35°36' E 140°06'0 0.0
2015-Aug-18 14:31N 35°36' E 140°06'0 0.0
2015-Aug-18 13:31N 35°36' E 140°06'0 0.0
2015-Aug-18 12:31N 35°36' E 140°06'0 0.0
2015-Aug-18 11:31N 35°36' E 140°06'0 0.0
2015-Aug-18 10:31N 35°36' E 140°06'0 0.0
2015-Aug-18 09:28N 35°36' E 140°06'0 0.0
2015-Aug-18 08:31N 35°36' E 140°06'0 0.0
2015-Aug-18 07:31N 35°36' E 140°06'0 0.0
2015-Aug-18 06:28N 35°36' E 140°06'0 0.0
2015-Aug-18 05:31N 35°36' E 140°06'0 0.0
2015-Aug-18 04:31N 35°36' E 140°06'0 0.0
2015-Aug-18 04:07N 35°36' E 140°06'0 0.0
2015-Aug-18 03:32N 35°36' E 140°06'0 0.0
2015-Aug-18 02:32N 35°36' E 140°06'0 0.0
2015-Aug-18 01:32N 35°36' E 140°06'0 0.0
2015-Aug-18 00:32N 35°36' E 140°06'0 0.0
2015-Aug-17 23:17N 35°36' E 140°06'0 0.0
2015-Aug-17 22:26N 35°36' E 140°06'0 0.0
2015-Aug-17 21:20N 35°36' E 140°06'0 0.0
2015-Aug-17 20:32N 35°36' E 140°06'0 0.0
2015-Aug-17 19:29N 35°36' E 140°06'0 0.0
2015-Aug-17 18:26N 35°36' E 140°06'0 0.0
2015-Aug-17 17:32N 35°36' E 140°06'0 0.0
2015-Aug-17 16:23N 35°36' E 140°06'0 0.0
2015-Aug-17 15:26N 35°36' E 140°06'0 0.0
2015-Aug-17 14:32N 35°36' E 140°06'0 0.0
2015-Aug-17 13:32N 35°36' E 140°06'0 0.0
2015-Aug-17 12:32N 35°36' E 140°06'0 0.0
2015-Aug-17 11:32N 35°36' E 140°06'0 0.0
2015-Aug-17 10:32N 35°36' E 140°06'0 0.0
2015-Aug-17 09:32N 35°36' E 140°06'0 0.0
2015-Aug-17 08:32N 35°36' E 140°06'0 0.0
2015-Aug-17 07:29N 35°36' E 140°06'0 0.0
2015-Aug-17 06:32N 35°36' E 140°06'2 2.5
2015-Aug-17 05:33N 35°35' E 140°03'1 1.4
2015-Aug-17 04:31N 35°35' E 140°01'0 0.0
2015-Aug-17 03:31N 35°35' E 140°01'0 0.0
2015-Aug-17 02:22N 35°35' E 140°01'0 0.0
2015-Aug-17 01:31N 35°35' E 140°01'0 0.0
2015-Aug-17 00:28N 35°35' E 140°01'0 0.0
2015-Aug-16 23:28N 35°35' E 140°01'0 0.0
2015-Aug-16 22:31N 35°35' E 140°01'0 0.0
2015-Aug-16 21:25N 35°35' E 140°01'0 0.0
2015-Aug-16 20:31N 35°35' E 140°01'0 0.0
2015-Aug-16 19:31N 35°35' E 140°01'0 0.0
2015-Aug-16 18:28N 35°35' E 140°01'0 0.0
2015-Aug-16 17:31N 35°35' E 140°01'0 0.0
2015-Aug-16 16:10N 35°35' E 140°01'0 0.0
2015-Aug-16 15:28N 35°35' E 140°01'0 0.0
2015-Aug-16 14:25N 35°35' E 140°01'0 0.0
2015-Aug-16 13:28N 35°35' E 140°01'0 0.0
2015-Aug-16 12:31N 35°35' E 140°01'0 0.0
2015-Aug-16 11:25N 35°35' E 140°01'0 0.0
2015-Aug-16 10:22N 35°35' E 140°01'0 0.0
2015-Aug-16 09:22N 35°35' E 140°01'0 0.0
2015-Aug-16 08:28N 35°35' E 140°01'0 0.0
2015-Aug-16 07:31N 35°35' E 140°01'0 0.0
2015-Aug-16 06:31N 35°35' E 140°01'0 0.0
2015-Aug-16 05:28N 35°35' E 140°01'0 0.0
2015-Aug-16 04:31N 35°35' E 140°01'0 0.0
2015-Aug-16 03:28N 35°35' E 140°01'0 0.0
2015-Aug-16 02:28N 35°35' E 140°01'0 0.0
2015-Aug-16 01:31N 35°35' E 140°01'0 0.0
2015-Aug-16 00:28N 35°35' E 140°01'0 0.0
2015-Aug-15 23:31N 35°35' E 140°01'0 0.1
2015-Aug-15 22:31N 35°35' E 140°01'0 0.0
2015-Aug-15 21:31N 35°35' E 140°01'0 0.0
2015-Aug-15 20:28N 35°35' E 140°01'0 0.1
2015-Aug-15 19:31N 35°35' E 140°01'0 0.0
2015-Aug-15 18:31N 35°35' E 140°01'0 0.1
2015-Aug-15 17:28N 35°35' E 140°01'0 0.0
2015-Aug-15 16:22N 35°35' E 140°02'0 0.0
2015-Aug-15 15:31N 35°35' E 140°02'0 0.0
2015-Aug-15 14:31N 35°35' E 140°02'0 0.0
2015-Aug-15 13:28N 35°35' E 140°02'0 0.0
2015-Aug-15 12:28N 35°35' E 140°02'0 0.0
2015-Aug-15 11:28N 35°35' E 140°02'0 0.0
2015-Aug-15 10:22N 35°35' E 140°02'0 0.0
2015-Aug-15 09:31N 35°35' E 140°02'0 0.1
2015-Aug-15 08:32N 35°35' E 140°02'0 0.0
2015-Aug-15 07:32N 35°35' E 140°02'2 2.3
2015-Aug-15 06:33N 35°34' E 139°59'8 8.3
2015-Aug-15 05:33N 35°28' E 139°51'1111.1
2015-Aug-15 04:33N 35°19' E 139°44'1211.7
2015-Aug-15 03:33N 35°07' E 139°45'1111.4
2015-Aug-15 02:33N 34°59' E 139°36'10 7.0
2015-Aug-15 01:09N 34°52' E 139°27'1 1.6
2015-Aug-15 00:31N 34°51' E 139°28'4 1.8
2015-Aug-14 22:26N 34°49' E 139°32'2 2.1
2015-Aug-14 21:33N 34°49' E 139°34'9 0.8
2015-Aug-14 10:12N 34°57' E 139°38'710.6
2015-Aug-14 09:33N 35°03' E 139°41'1110.6
2015-Aug-14 08:33N 35°13' E 139°46'1110.6
2015-Aug-14 07:33N 35°23' E 139°42'5 4.9
2015-Aug-14 06:33N 35°28' E 139°42'0 0.0
2015-Aug-14 05:33N 35°28' E 139°42'0 0.0
2015-Aug-14 04:33N 35°28' E 139°42'0 0.0
2015-Aug-14 03:33N 35°28' E 139°42'0 0.0
2015-Aug-14 02:33N 35°28' E 139°42'0 0.0
2015-Aug-14 01:33N 35°28' E 139°42'0 0.0
2015-Aug-14 00:33N 35°28' E 139°42'0 0.0
2015-Aug-13 23:33N 35°28' E 139°42'0 0.0
2015-Aug-13 22:33N 35°28' E 139°42'0 0.0
2015-Aug-13 21:33N 35°28' E 139°42'0 0.0
2015-Aug-13 20:33N 35°28' E 139°42'0 0.0
2015-Aug-13 19:33N 35°28' E 139°42'0 0.0
2015-Aug-13 18:33N 35°28' E 139°42'0 0.0
2015-Aug-13 17:33N 35°28' E 139°42'0 0.0
2015-Aug-13 16:33N 35°28' E 139°42'0 0.0
2015-Aug-13 15:33N 35°28' E 139°42'0 0.0
2015-Aug-13 14:33N 35°28' E 139°42'0 0.0
2015-Aug-13 13:33N 35°28' E 139°42'0 0.0
2015-Aug-13 12:33N 35°28' E 139°42'0 0.0
2015-Aug-13 11:33N 35°28' E 139°42'0 0.0
2015-Aug-13 10:33N 35°28' E 139°42'0 0.0
2015-Aug-13 09:33N 35°28' E 139°42'0 0.0
2015-Aug-13 08:33N 35°28' E 139°42'0 0.0
2015-Aug-13 07:33N 35°28' E 139°42'0 0.0
2015-Aug-13 06:33N 35°28' E 139°42'0 0.0
2015-Aug-13 05:33N 35°28' E 139°42'0 0.0
2015-Aug-13 04:33N 35°28' E 139°42'0 0.0
2015-Aug-13 03:33N 35°28' E 139°42'0 0.0
2015-Aug-13 02:33N 35°28' E 139°42'0 0.0
2015-Aug-13 01:33N 35°28' E 139°42'0 0.0
2015-Aug-13 00:33N 35°28' E 139°42'0 0.0
2015-Aug-12 23:33N 35°28' E 139°42'0 0.0
2015-Aug-12 22:33N 35°28' E 139°42'0 0.0
2015-Aug-12 21:33N 35°28' E 139°42'0 0.0
2015-Aug-12 20:33N 35°28' E 139°42'0 0.0
2015-Aug-12 19:30N 35°28' E 139°42'0 0.0
2015-Aug-12 18:33N 35°28' E 139°42'0 0.0
2015-Aug-12 17:33N 35°28' E 139°42'0 0.0
2015-Aug-12 16:33N 35°28' E 139°42'0 0.0
2015-Aug-12 15:33N 35°28' E 139°42'0 0.0
2015-Aug-12 14:33N 35°28' E 139°42'0 0.0
2015-Aug-12 13:33N 35°28' E 139°42'0 0.0
2015-Aug-12 12:33N 35°28' E 139°42'0 0.0
2015-Aug-12 11:33N 35°28' E 139°42'0 0.0
2015-Aug-12 10:33N 35°28' E 139°42'0 0.0
2015-Aug-12 09:33N 35°28' E 139°42'0 0.0
2015-Aug-12 08:33N 35°28' E 139°42'0 0.0
2015-Aug-12 07:33N 35°28' E 139°42'0 0.0
2015-Aug-12 06:33N 35°28' E 139°42'0 0.0
2015-Aug-12 05:33N 35°28' E 139°42'0 0.0
2015-Aug-12 04:33N 35°28' E 139°42'0 0.0
2015-Aug-12 03:33N 35°28' E 139°42'0 0.0
2015-Aug-12 02:33N 35°28' E 139°42'0 0.0
2015-Aug-12 01:33N 35°28' E 139°42'0 0.0
2015-Aug-12 00:33N 35°28' E 139°42'0 0.0
2015-Aug-11 23:33N 35°28' E 139°42'0 0.0
2015-Aug-11 22:33N 35°28' E 139°42'0 0.0
2015-Aug-11 21:33N 35°28' E 139°42'0 0.0
2015-Aug-11 20:33N 35°28' E 139°42'0 0.0
2015-Aug-11 19:33N 35°28' E 139°42'0 0.0
2015-Aug-11 18:33N 35°28' E 139°42'0 0.0
2015-Aug-11 17:33N 35°28' E 139°42'0 0.0
2015-Aug-11 16:33N 35°28' E 139°42'0 0.0
2015-Aug-11 15:33N 35°28' E 139°42'0 0.0
2015-Aug-11 14:33N 35°28' E 139°42'0 0.0
2015-Aug-11 13:33N 35°28' E 139°42'0 0.0
2015-Aug-11 12:33N 35°28' E 139°42'0 0.0
2015-Aug-11 11:33N 35°28' E 139°42'0 0.0
2015-Aug-11 10:33N 35°28' E 139°42'0 0.0
2015-Aug-11 09:33N 35°28' E 139°42'0 0.0
2015-Aug-11 08:33N 35°28' E 139°42'2 1.6
2015-Aug-11 07:33N 35°27' E 139°43'5 5.0
2015-Aug-11 06:33N 35°22' E 139°45'5 5.3
2015-Aug-11 05:33N 35°17' E 139°45'10 9.6
2015-Aug-11 04:33N 35°07' E 139°45'1111.0
2015-Aug-11 03:33N 34°59' E 139°36'1211.6
2015-Aug-11 02:31N 34°54' E 139°23'9 0.9
2015-Aug-10 17:10N 34°49' E 139°33'22 8.2
2015-Aug-10 14:32N 34°54' E 139°59'9 8.6
2015-Aug-10 13:31N 34°58' E 140°08'9 9.5
2015-Aug-10 12:33N 35°05' E 140°15'  
Track history (hours):
 
Tides and Currents Weather Stations Pressure Air Temp Water Temp Dewpoint Dewpoint Depression Visibility Wind Speed Wind Dir Waves Ship Positions

Thailine 9

Last reported at 2015-Aug-20 10:10 UTC. Time now 2015-Aug-31 19:53 UTC.
Position N 34°59' E 139°32'.
Warning: this ship's position is 11 days out of date.

Length 113 m; draft 5.3 m.

Type: Cargo ship. MMSI: 533791000.

Date/timePositionNaut miles runAvg speedWind from/ knotsBaromVisibWave heightAir tempDewpointWater temp
2015-Aug-20 10:10N 34°59' E 139°32'711.4
2015-Aug-20 09:33N 35°03' E 139°38'1211.6
2015-Aug-20 08:34N 35°13' E 139°46'1211.5
2015-Aug-20 07:33N 35°24' E 139°42'4 3.7
2015-Aug-20 06:33N 35°27' E 139°41'0 0.0
2015-Aug-20 05:26N 35°27' E 139°41'0 0.0
2015-Aug-20 04:32N 35°27' E 139°41'0 0.0
2015-Aug-20 03:32N 35°27' E 139°41'0 0.0
2015-Aug-20 02:31N 35°27' E 139°41'0 0.0
2015-Aug-20 01:32N 35°27' E 139°41'0 0.0
2015-Aug-20 00:32N 35°27' E 139°41'0 0.0
2015-Aug-19 23:31N 35°27' E 139°41'0 0.0
2015-Aug-19 22:32N 35°27' E 139°41'2 1.6
2015-Aug-19 21:32N 35°26' E 139°42'0 0.1
2015-Aug-19 20:32N 35°26' E 139°42'0 0.0
2015-Aug-19 19:32N 35°26' E 139°42'0 0.1
2015-Aug-19 18:32N 35°26' E 139°42'0 0.0
2015-Aug-19 17:32N 35°26' E 139°42'0 0.0
2015-Aug-19 16:32N 35°26' E 139°42'0 0.0
2015-Aug-19 15:32N 35°26' E 139°42'0 0.0
2015-Aug-19 14:32N 35°26' E 139°42'0 0.0
2015-Aug-19 13:32N 35°26' E 139°42'0 0.0
2015-Aug-19 12:32N 35°26' E 139°42'0 0.0
2015-Aug-19 11:32N 35°26' E 139°42'0 0.0
2015-Aug-19 10:32N 35°26' E 139°42'0 0.0
2015-Aug-19 09:32N 35°26' E 139°42'0 0.1
2015-Aug-19 08:32N 35°26' E 139°42'0 0.1
2015-Aug-19 07:32N 35°26' E 139°42'1 0.7
2015-Aug-19 06:34N 35°26' E 139°43'1111.3
2015-Aug-19 05:34N 35°31' E 139°55'1010.3
2015-Aug-19 04:34N 35°36' E 140°06'0 0.1
2015-Aug-19 03:33N 35°36' E 140°06'0 0.0
2015-Aug-19 02:31N 35°36' E 140°06'0 0.0
2015-Aug-19 01:28N 35°36' E 140°06'0 0.0
2015-Aug-19 00:31N 35°36' E 140°06'0 0.0
2015-Aug-18 23:31N 35°36' E 140°06'0 0.0
2015-Aug-18 22:28N 35°36' E 140°06'0 0.0
2015-Aug-18 21:31N 35°36' E 140°06'0 0.0
2015-Aug-18 20:31N 35°36' E 140°06'0 0.0
2015-Aug-18 19:31N 35°36' E 140°06'0 0.0
2015-Aug-18 18:25N 35°36' E 140°06'0 0.0
2015-Aug-18 17:31N 35°36' E 140°06'0 0.0
2015-Aug-18 16:31N 35°36' E 140°06'0 0.0
2015-Aug-18 15:31N 35°36' E 140°06'0 0.0
2015-Aug-18 14:31N 35°36' E 140°06'0 0.0
2015-Aug-18 13:31N 35°36' E 140°06'0 0.0
2015-Aug-18 12:31N 35°36' E 140°06'0 0.0
2015-Aug-18 11:31N 35°36' E 140°06'0 0.0
2015-Aug-18 10:31N 35°36' E 140°06'0 0.0
2015-Aug-18 09:28N 35°36' E 140°06'0 0.0
2015-Aug-18 08:31N 35°36' E 140°06'0 0.0
2015-Aug-18 07:31N 35°36' E 140°06'0 0.0
2015-Aug-18 06:28N 35°36' E 140°06'0 0.0
2015-Aug-18 05:31N 35°36' E 140°06'0 0.0
2015-Aug-18 04:31N 35°36' E 140°06'0 0.0
2015-Aug-18 04:07N 35°36' E 140°06'0 0.0
2015-Aug-18 03:32N 35°36' E 140°06'0 0.0
2015-Aug-18 02:32N 35°36' E 140°06'0 0.0
2015-Aug-18 01:32N 35°36' E 140°06'0 0.0
2015-Aug-18 00:32N 35°36' E 140°06'0 0.0
2015-Aug-17 23:17N 35°36' E 140°06'0 0.0
2015-Aug-17 22:26N 35°36' E 140°06'0 0.0
2015-Aug-17 21:20N 35°36' E 140°06'0 0.0
2015-Aug-17 20:32N 35°36' E 140°06'0 0.0
2015-Aug-17 19:29N 35°36' E 140°06'0 0.0
2015-Aug-17 18:26N 35°36' E 140°06'0 0.0
2015-Aug-17 17:32N 35°36' E 140°06'0 0.0
2015-Aug-17 16:23N 35°36' E 140°06'0 0.0
2015-Aug-17 15:26N 35°36' E 140°06'0 0.0
2015-Aug-17 14:32N 35°36' E 140°06'0 0.0
2015-Aug-17 13:32N 35°36' E 140°06'0 0.0
2015-Aug-17 12:32N 35°36' E 140°06'0 0.0
2015-Aug-17 11:32N 35°36' E 140°06'0 0.0
2015-Aug-17 10:32N 35°36' E 140°06'0 0.0
2015-Aug-17 09:32N 35°36' E 140°06'0 0.0
2015-Aug-17 08:32N 35°36' E 140°06'0 0.0
2015-Aug-17 07:29N 35°36' E 140°06'0 0.0
2015-Aug-17 06:32N 35°36' E 140°06'2 2.5
2015-Aug-17 05:33N 35°35' E 140°03'1 1.4
2015-Aug-17 04:31N 35°35' E 140°01'0 0.0
2015-Aug-17 03:31N 35°35' E 140°01'0 0.0
2015-Aug-17 02:22N 35°35' E 140°01'0 0.0
2015-Aug-17 01:31N 35°35' E 140°01'0 0.0
2015-Aug-17 00:28N 35°35' E 140°01'0 0.0
2015-Aug-16 23:28N 35°35' E 140°01'0 0.0
2015-Aug-16 22:31N 35°35' E 140°01'0 0.0
2015-Aug-16 21:25N 35°35' E 140°01'0 0.0
2015-Aug-16 20:31N 35°35' E 140°01'0 0.0
2015-Aug-16 19:31N 35°35' E 140°01'0 0.0
2015-Aug-16 18:28N 35°35' E 140°01'0 0.0
2015-Aug-16 17:31N 35°35' E 140°01'0 0.0
2015-Aug-16 16:10N 35°35' E 140°01'0 0.0
2015-Aug-16 15:28N 35°35' E 140°01'0 0.0
2015-Aug-16 14:25N 35°35' E 140°01'0 0.0
2015-Aug-16 13:28N 35°35' E 140°01'0 0.0
2015-Aug-16 12:31N 35°35' E 140°01'0 0.0
2015-Aug-16 11:25N 35°35' E 140°01'0 0.0
2015-Aug-16 10:22N 35°35' E 140°01'0 0.0
2015-Aug-16 09:22N 35°35' E 140°01'0 0.0
2015-Aug-16 08:28N 35°35' E 140°01'0 0.0
2015-Aug-16 07:31N 35°35' E 140°01'0 0.0
2015-Aug-16 06:31N 35°35' E 140°01'0 0.0
2015-Aug-16 05:28N 35°35' E 140°01'0 0.0
2015-Aug-16 04:31N 35°35' E 140°01'0 0.0
2015-Aug-16 03:28N 35°35' E 140°01'0 0.0
2015-Aug-16 02:28N 35°35' E 140°01'0 0.0
2015-Aug-16 01:31N 35°35' E 140°01'0 0.0
2015-Aug-16 00:28N 35°35' E 140°01'0 0.0
2015-Aug-15 23:31N 35°35' E 140°01'0 0.1
2015-Aug-15 22:31N 35°35' E 140°01'0 0.0
2015-Aug-15 21:31N 35°35' E 140°01'0 0.0
2015-Aug-15 20:28N 35°35' E 140°01'0 0.1
2015-Aug-15 19:31N 35°35' E 140°01'0 0.0
2015-Aug-15 18:31N 35°35' E 140°01'0 0.1
2015-Aug-15 17:28N 35°35' E 140°01'0 0.0
2015-Aug-15 16:22N 35°35' E 140°02'0 0.0
2015-Aug-15 15:31N 35°35' E 140°02'0 0.0
2015-Aug-15 14:31N 35°35' E 140°02'0 0.0
2015-Aug-15 13:28N 35°35' E 140°02'0 0.0
2015-Aug-15 12:28N 35°35' E 140°02'0 0.0
2015-Aug-15 11:28N 35°35' E 140°02'0 0.0
2015-Aug-15 10:22N 35°35' E 140°02'0 0.0
2015-Aug-15 09:31N 35°35' E 140°02'0 0.1
2015-Aug-15 08:32N 35°35' E 140°02'0 0.0
2015-Aug-15 07:32N 35°35' E 140°02'2 2.3
2015-Aug-15 06:33N 35°34' E 139°59'8 8.3
2015-Aug-15 05:33N 35°28' E 139°51'1111.1
2015-Aug-15 04:33N 35°19' E 139°44'1211.7
2015-Aug-15 03:33N 35°07' E 139°45'1111.4
2015-Aug-15 02:33N 34°59' E 139°36'10 7.0
2015-Aug-15 01:09N 34°52' E 139°27'1 1.6
2015-Aug-15 00:31N 34°51' E 139°28'4 1.8
2015-Aug-14 22:26N 34°49' E 139°32'2 2.1
2015-Aug-14 21:33N 34°49' E 139°34'9 0.8
2015-Aug-14 10:12N 34°57' E 139°38'710.6
2015-Aug-14 09:33N 35°03' E 139°41'1110.6
2015-Aug-14 08:33N 35°13' E 139°46'1110.6
2015-Aug-14 07:33N 35°23' E 139°42'5 4.9
2015-Aug-14 06:33N 35°28' E 139°42'0 0.0
2015-Aug-14 05:33N 35°28' E 139°42'0 0.0
2015-Aug-14 04:33N 35°28' E 139°42'0 0.0
2015-Aug-14 03:33N 35°28' E 139°42'0 0.0
2015-Aug-14 02:33N 35°28' E 139°42'0 0.0
2015-Aug-14 01:33N 35°28' E 139°42'0 0.0
2015-Aug-14 00:33N 35°28' E 139°42'0 0.0
2015-Aug-13 23:33N 35°28' E 139°42'0 0.0
2015-Aug-13 22:33N 35°28' E 139°42'0 0.0
2015-Aug-13 21:33N 35°28' E 139°42'0 0.0
2015-Aug-13 20:33N 35°28' E 139°42'0 0.0
2015-Aug-13 19:33N 35°28' E 139°42'0 0.0
2015-Aug-13 18:33N 35°28' E 139°42'0 0.0
2015-Aug-13 17:33N 35°28' E 139°42'0 0.0
2015-Aug-13 16:33N 35°28' E 139°42'0 0.0
2015-Aug-13 15:33N 35°28' E 139°42'0 0.0
2015-Aug-13 14:33N 35°28' E 139°42'0 0.0
2015-Aug-13 13:33N 35°28' E 139°42'0 0.0
2015-Aug-13 12:33N 35°28' E 139°42'0 0.0
2015-Aug-13 11:33N 35°28' E 139°42'0 0.0
2015-Aug-13 10:33N 35°28' E 139°42'0 0.0
2015-Aug-13 09:33N 35°28' E 139°42'0 0.0
2015-Aug-13 08:33N 35°28' E 139°42'0 0.0
2015-Aug-13 07:33N 35°28' E 139°42'0 0.0
2015-Aug-13 06:33N 35°28' E 139°42'0 0.0
2015-Aug-13 05:33N 35°28' E 139°42'0 0.0
2015-Aug-13 04:33N 35°28' E 139°42'0 0.0
2015-Aug-13 03:33N 35°28' E 139°42'0 0.0
2015-Aug-13 02:33N 35°28' E 139°42'0 0.0
2015-Aug-13 01:33N 35°28' E 139°42'0 0.0
2015-Aug-13 00:33N 35°28' E 139°42'0 0.0
2015-Aug-12 23:33N 35°28' E 139°42'0 0.0
2015-Aug-12 22:33N 35°28' E 139°42'0 0.0
2015-Aug-12 21:33N 35°28' E 139°42'0 0.0
2015-Aug-12 20:33N 35°28' E 139°42'0 0.0
2015-Aug-12 19:30N 35°28' E 139°42'0 0.0
2015-Aug-12 18:33N 35°28' E 139°42'0 0.0
2015-Aug-12 17:33N 35°28' E 139°42'0 0.0
2015-Aug-12 16:33N 35°28' E 139°42'0 0.0
2015-Aug-12 15:33N 35°28' E 139°42'0 0.0
2015-Aug-12 14:33N 35°28' E 139°42'0 0.0
2015-Aug-12 13:33N 35°28' E 139°42'0 0.0
2015-Aug-12 12:33N 35°28' E 139°42'0 0.0
2015-Aug-12 11:33N 35°28' E 139°42'0 0.0
2015-Aug-12 10:33N 35°28' E 139°42'0 0.0
2015-Aug-12 09:33N 35°28' E 139°42'0 0.0
2015-Aug-12 08:33N 35°28' E 139°42'0 0.0
2015-Aug-12 07:33N 35°28' E 139°42'0 0.0
2015-Aug-12 06:33N 35°28' E 139°42'0 0.0
2015-Aug-12 05:33N 35°28' E 139°42'0 0.0
2015-Aug-12 04:33N 35°28' E 139°42'0 0.0
2015-Aug-12 03:33N 35°28' E 139°42'0 0.0
2015-Aug-12 02:33N 35°28' E 139°42'0 0.0
2015-Aug-12 01:33N 35°28' E 139°42'0 0.0
2015-Aug-12 00:33N 35°28' E 139°42'0 0.0
2015-Aug-11 23:33N 35°28' E 139°42'0 0.0
2015-Aug-11 22:33N 35°28' E 139°42'0 0.0
2015-Aug-11 21:33N 35°28' E 139°42'0 0.0
2015-Aug-11 20:33N 35°28' E 139°42'0 0.0
2015-Aug-11 19:33N 35°28' E 139°42'0 0.0
2015-Aug-11 18:33N 35°28' E 139°42'0 0.0
2015-Aug-11 17:33N 35°28' E 139°42'0 0.0
2015-Aug-11 16:33N 35°28' E 139°42'0 0.0
2015-Aug-11 15:33N 35°28' E 139°42'0 0.0
2015-Aug-11 14:33N 35°28' E 139°42'0 0.0
2015-Aug-11 13:33N 35°28' E 139°42'0 0.0
2015-Aug-11 12:33N 35°28' E 139°42'0 0.0
2015-Aug-11 11:33N 35°28' E 139°42'0 0.0
2015-Aug-11 10:33N 35°28' E 139°42'0 0.0
2015-Aug-11 09:33N 35°28' E 139°42'0 0.0
2015-Aug-11 08:33N 35°28' E 139°42'2 1.6
2015-Aug-11 07:33N 35°27' E 139°43'5 5.0
2015-Aug-11 06:33N 35°22' E 139°45'5 5.3
2015-Aug-11 05:33N 35°17' E 139°45'10 9.6
2015-Aug-11 04:33N 35°07' E 139°45'1111.0
2015-Aug-11 03:33N 34°59' E 139°36'1211.6
2015-Aug-11 02:31N 34°54' E 139°23'9 0.9
2015-Aug-10 17:10N 34°49' E 139°33'22 8.2
2015-Aug-10 14:32N 34°54' E 139°59'9 8.6
2015-Aug-10 13:31N 34°58' E 140°08'9 9.5
2015-Aug-10 12:33N 35°05' E 140°15'  

Dump ship's entire track history